<?xml version="1.0" encoding="UTF-8"?>
<gpx version="1.1" creator="https://www.youtrack.es" xsi:schemaLocation="http://www.topografix.com/GPX/1/1 http://www.topografix.com/GPX/1/1/gpx.xsd http://www.garmin.com/xmlschemas/GpxExtensions/v3 http://www.garmin.com/xmlschemas/GpxExtensionsv3.xsd http://www.garmin.com/xmlschemas/TrackPointExtension/v1 http://www.garmin.com/xmlschemas/TrackPointExtensionv1.xsd" xmlns:gpxtpx="http://www.garmin.com/xmlschemas/TrackPointExtension/v1" xmlns:gpxx="http://www.garmin.com/xmlschemas/GpxExtensions/v3" xmlns:xsi="http://www.w3.org/2001/XMLSchema-instance">
  <metadata>
    <author>
      <name>DAVID GALIANO</name>
      <email id="dgaliano74" domain="gmail.com"/>
    </author>
    <link href="https://www.youtrack.es">
      <text>YouTrack.es</text>
    </link>
    <time>2026-05-08T18:56:45Z</time>
  </metadata>
  <trk>
    <src>https://www.youtrack.es</src>
    <link href="https://www.youtrack.es/ruta/28770-0304-almogia-antequera">
      <text>YouTrack.es</text>
    </link>
    <trkseg>
      <trkpt lat="36.829870" lon="-4.541232">
        <ele>406.4</ele>
        <time>2013-12-06T09:37:32Z</time>
      </trkpt>
      <trkpt lat="36.829597" lon="-4.541212">
        <ele>410.0</ele>
        <time>2013-12-06T09:37:53Z</time>
      </trkpt>
      <trkpt lat="36.830076" lon="-4.541208">
        <ele>403.5</ele>
        <time>2013-12-06T09:38:01Z</time>
      </trkpt>
      <trkpt lat="36.830784" lon="-4.541231">
        <ele>401.1</ele>
        <time>2013-12-06T09:38:16Z</time>
      </trkpt>
      <trkpt lat="36.831543" lon="-4.541492">
        <ele>401.5</ele>
        <time>2013-12-06T09:38:33Z</time>
      </trkpt>
      <trkpt lat="36.831707" lon="-4.541092">
        <ele>402.8</ele>
        <time>2013-12-06T09:38:49Z</time>
      </trkpt>
      <trkpt lat="36.832310" lon="-4.540890">
        <ele>404.3</ele>
        <time>2013-12-06T09:39:00Z</time>
      </trkpt>
      <trkpt lat="36.833250" lon="-4.540980">
        <ele>407.9</ele>
        <time>2013-12-06T09:39:18Z</time>
      </trkpt>
      <trkpt lat="36.833570" lon="-4.540960">
        <ele>409.1</ele>
        <time>2013-12-06T09:39:55Z</time>
      </trkpt>
      <trkpt lat="36.834090" lon="-4.540700">
        <ele>409.6</ele>
        <time>2013-12-06T09:40:05Z</time>
      </trkpt>
      <trkpt lat="36.834350" lon="-4.540940">
        <ele>410.4</ele>
        <time>2013-12-06T09:40:08Z</time>
      </trkpt>
      <trkpt lat="36.835030" lon="-4.540940">
        <ele>412.5</ele>
        <time>2013-12-06T09:40:14Z</time>
      </trkpt>
      <trkpt lat="36.835760" lon="-4.541620">
        <ele>410.5</ele>
        <time>2013-12-06T09:40:20Z</time>
      </trkpt>
      <trkpt lat="36.836490" lon="-4.541600">
        <ele>396.0</ele>
        <time>2013-12-06T09:40:24Z</time>
      </trkpt>
      <trkpt lat="36.836730" lon="-4.541190">
        <ele>390.4</ele>
        <time>2013-12-06T09:40:30Z</time>
      </trkpt>
      <trkpt lat="36.837690" lon="-4.541300">
        <ele>367.8</ele>
        <time>2013-12-06T09:40:41Z</time>
      </trkpt>
      <trkpt lat="36.838170" lon="-4.541840">
        <ele>372.9</ele>
        <time>2013-12-06T09:40:50Z</time>
      </trkpt>
      <trkpt lat="36.839130" lon="-4.542029">
        <ele>357.0</ele>
        <time>2013-12-06T09:41:02Z</time>
      </trkpt>
      <trkpt lat="36.839337" lon="-4.541522">
        <ele>343.7</ele>
        <time>2013-12-06T09:41:07Z</time>
      </trkpt>
      <trkpt lat="36.839730" lon="-4.541860">
        <ele>347.2</ele>
        <time>2013-12-06T09:41:22Z</time>
      </trkpt>
      <trkpt lat="36.841080" lon="-4.542760">
        <ele>357.8</ele>
        <time>2013-12-06T09:41:35Z</time>
      </trkpt>
      <trkpt lat="36.842030" lon="-4.542500">
        <ele>358.9</ele>
        <time>2013-12-06T09:41:48Z</time>
      </trkpt>
      <trkpt lat="36.842480" lon="-4.542180">
        <ele>363.9</ele>
        <time>2013-12-06T09:41:52Z</time>
      </trkpt>
      <trkpt lat="36.842570" lon="-4.541990">
        <ele>363.4</ele>
        <time>2013-12-06T09:41:58Z</time>
      </trkpt>
      <trkpt lat="36.842760" lon="-4.542220">
        <ele>367.2</ele>
        <time>2013-12-06T09:42:07Z</time>
      </trkpt>
      <trkpt lat="36.842590" lon="-4.543229">
        <ele>369.4</ele>
        <time>2013-12-06T09:42:11Z</time>
      </trkpt>
      <trkpt lat="36.842650" lon="-4.543429">
        <ele>368.8</ele>
        <time>2013-12-06T09:42:25Z</time>
      </trkpt>
      <trkpt lat="36.842870" lon="-4.543339">
        <ele>373.2</ele>
        <time>2013-12-06T09:42:45Z</time>
      </trkpt>
      <trkpt lat="36.842990" lon="-4.543129">
        <ele>377.1</ele>
        <time>2013-12-06T09:43:01Z</time>
      </trkpt>
      <trkpt lat="36.843420" lon="-4.543299">
        <ele>384.3</ele>
        <time>2013-12-06T09:43:17Z</time>
      </trkpt>
      <trkpt lat="36.844540" lon="-4.544090">
        <ele>395.9</ele>
        <time>2013-12-06T09:43:31Z</time>
      </trkpt>
      <trkpt lat="36.844880" lon="-4.544390">
        <ele>397.6</ele>
        <time>2013-12-06T09:43:41Z</time>
      </trkpt>
      <trkpt lat="36.845330" lon="-4.545120">
        <ele>404.6</ele>
        <time>2013-12-06T09:43:51Z</time>
      </trkpt>
      <trkpt lat="36.845870" lon="-4.545610">
        <ele>415.2</ele>
        <time>2013-12-06T09:44:03Z</time>
      </trkpt>
      <trkpt lat="36.846210" lon="-4.545830">
        <ele>420.5</ele>
        <time>2013-12-06T09:44:37Z</time>
      </trkpt>
      <trkpt lat="36.846640" lon="-4.545440">
        <ele>435.6</ele>
        <time>2013-12-06T09:44:52Z</time>
      </trkpt>
      <trkpt lat="36.847240" lon="-4.545140">
        <ele>440.7</ele>
        <time>2013-12-06T09:45:19Z</time>
      </trkpt>
      <trkpt lat="36.847410" lon="-4.544350">
        <ele>425.9</ele>
        <time>2013-12-06T09:45:36Z</time>
      </trkpt>
      <trkpt lat="36.847070" lon="-4.543450">
        <ele>411.8</ele>
        <time>2013-12-06T09:45:52Z</time>
      </trkpt>
      <trkpt lat="36.847410" lon="-4.543660">
        <ele>415.1</ele>
        <time>2013-12-06T09:46:10Z</time>
      </trkpt>
      <trkpt lat="36.847740" lon="-4.544090">
        <ele>423.0</ele>
        <time>2013-12-06T09:46:12Z</time>
      </trkpt>
      <trkpt lat="36.847720" lon="-4.544990">
        <ele>440.5</ele>
        <time>2013-12-06T09:46:46Z</time>
      </trkpt>
      <trkpt lat="36.848920" lon="-4.544560">
        <ele>419.6</ele>
        <time>2013-12-06T09:47:03Z</time>
      </trkpt>
      <trkpt lat="36.849110" lon="-4.544630">
        <ele>417.9</ele>
        <time>2013-12-06T09:47:27Z</time>
      </trkpt>
      <trkpt lat="36.849560" lon="-4.545810">
        <ele>427.6</ele>
        <time>2013-12-06T09:47:37Z</time>
      </trkpt>
      <trkpt lat="36.850830" lon="-4.545440">
        <ele>422.0</ele>
        <time>2013-12-06T09:47:51Z</time>
      </trkpt>
      <trkpt lat="36.851410" lon="-4.545510">
        <ele>417.0</ele>
        <time>2013-12-06T09:48:08Z</time>
      </trkpt>
      <trkpt lat="36.851560" lon="-4.545700">
        <ele>415.3</ele>
        <time>2013-12-06T09:48:11Z</time>
      </trkpt>
      <trkpt lat="36.851530" lon="-4.546670">
        <ele>422.9</ele>
        <time>2013-12-06T09:48:28Z</time>
      </trkpt>
      <trkpt lat="36.851690" lon="-4.547140">
        <ele>421.6</ele>
        <time>2013-12-06T09:48:43Z</time>
      </trkpt>
      <trkpt lat="36.852070" lon="-4.547500">
        <ele>416.4</ele>
        <time>2013-12-06T09:49:00Z</time>
      </trkpt>
      <trkpt lat="36.852630" lon="-4.549650">
        <ele>420.7</ele>
        <time>2013-12-06T09:49:22Z</time>
      </trkpt>
      <trkpt lat="36.853530" lon="-4.550960">
        <ele>438.6</ele>
        <time>2013-12-06T09:49:28Z</time>
      </trkpt>
      <trkpt lat="36.853940" lon="-4.551390">
        <ele>442.4</ele>
        <time>2013-12-06T09:49:29Z</time>
      </trkpt>
      <trkpt lat="36.854200" lon="-4.551430">
        <ele>441.9</ele>
        <time>2013-12-06T09:49:45Z</time>
      </trkpt>
      <trkpt lat="36.854470" lon="-4.551000">
        <ele>433.2</ele>
        <time>2013-12-06T09:50:04Z</time>
      </trkpt>
      <trkpt lat="36.854970" lon="-4.550790">
        <ele>427.9</ele>
        <time>2013-12-06T09:50:12Z</time>
      </trkpt>
      <trkpt lat="36.855400" lon="-4.550960">
        <ele>430.9</ele>
        <time>2013-12-06T09:50:29Z</time>
      </trkpt>
      <trkpt lat="36.855400" lon="-4.551490">
        <ele>435.8</ele>
        <time>2013-12-06T09:50:40Z</time>
      </trkpt>
      <trkpt lat="36.856020" lon="-4.551790">
        <ele>435.4</ele>
        <time>2013-12-06T09:50:47Z</time>
      </trkpt>
      <trkpt lat="36.856530" lon="-4.552550">
        <ele>443.5</ele>
        <time>2013-12-06T09:50:51Z</time>
      </trkpt>
      <trkpt lat="36.857070" lon="-4.553400">
        <ele>449.9</ele>
        <time>2013-12-06T09:51:06Z</time>
      </trkpt>
      <trkpt lat="36.857590" lon="-4.553940">
        <ele>462.5</ele>
        <time>2013-12-06T09:51:23Z</time>
      </trkpt>
      <trkpt lat="36.857950" lon="-4.554330">
        <ele>467.9</ele>
        <time>2013-12-06T09:51:43Z</time>
      </trkpt>
      <trkpt lat="36.858170" lon="-4.555010">
        <ele>477.9</ele>
        <time>2013-12-06T09:52:04Z</time>
      </trkpt>
      <trkpt lat="36.858590" lon="-4.555640">
        <ele>477.4</ele>
        <time>2013-12-06T09:52:08Z</time>
      </trkpt>
      <trkpt lat="36.858590" lon="-4.557070">
        <ele>469.7</ele>
        <time>2013-12-06T09:52:19Z</time>
      </trkpt>
      <trkpt lat="36.858680" lon="-4.557589">
        <ele>467.8</ele>
        <time>2013-12-06T09:52:43Z</time>
      </trkpt>
      <trkpt lat="36.859580" lon="-4.557820">
        <ele>472.5</ele>
        <time>2013-12-06T09:53:02Z</time>
      </trkpt>
      <trkpt lat="36.860950" lon="-4.556920">
        <ele>491.7</ele>
        <time>2013-12-06T09:53:06Z</time>
      </trkpt>
      <trkpt lat="36.861340" lon="-4.556390">
        <ele>498.3</ele>
        <time>2013-12-06T09:53:30Z</time>
      </trkpt>
      <trkpt lat="36.861530" lon="-4.556130">
        <ele>501.5</ele>
        <time>2013-12-06T09:53:48Z</time>
      </trkpt>
      <trkpt lat="36.862460" lon="-4.555760">
        <ele>511.6</ele>
        <time>2013-12-06T09:54:08Z</time>
      </trkpt>
      <trkpt lat="36.864430" lon="-4.554430">
        <ele>513.3</ele>
        <time>2013-12-06T09:54:26Z</time>
      </trkpt>
      <trkpt lat="36.864770" lon="-4.554050">
        <ele>512.2</ele>
        <time>2013-12-06T09:54:46Z</time>
      </trkpt>
      <trkpt lat="36.864920" lon="-4.553490">
        <ele>509.0</ele>
        <time>2013-12-06T09:55:05Z</time>
      </trkpt>
      <trkpt lat="36.864860" lon="-4.553060">
        <ele>503.2</ele>
        <time>2013-12-06T09:55:31Z</time>
      </trkpt>
      <trkpt lat="36.864320" lon="-4.552160">
        <ele>489.4</ele>
        <time>2013-12-06T09:55:58Z</time>
      </trkpt>
      <trkpt lat="36.863960" lon="-4.551240">
        <ele>491.2</ele>
        <time>2013-12-06T09:56:18Z</time>
      </trkpt>
      <trkpt lat="36.863400" lon="-4.551000">
        <ele>487.8</ele>
        <time>2013-12-06T09:56:40Z</time>
      </trkpt>
      <trkpt lat="36.863250" lon="-4.550700">
        <ele>490.0</ele>
        <time>2013-12-06T09:56:48Z</time>
      </trkpt>
      <trkpt lat="36.863440" lon="-4.550340">
        <ele>497.0</ele>
        <time>2013-12-06T09:57:10Z</time>
      </trkpt>
      <trkpt lat="36.864090" lon="-4.550160">
        <ele>501.4</ele>
        <time>2013-12-06T09:57:32Z</time>
      </trkpt>
      <trkpt lat="36.864710" lon="-4.549560">
        <ele>506.6</ele>
        <time>2013-12-06T09:57:44Z</time>
      </trkpt>
      <trkpt lat="36.865720" lon="-4.548920">
        <ele>513.5</ele>
        <time>2013-12-06T09:57:49Z</time>
      </trkpt>
      <trkpt lat="36.866020" lon="-4.548170">
        <ele>510.5</ele>
        <time>2013-12-06T09:58:12Z</time>
      </trkpt>
      <trkpt lat="36.866080" lon="-4.547609">
        <ele>506.4</ele>
        <time>2013-12-06T09:58:35Z</time>
      </trkpt>
      <trkpt lat="36.865980" lon="-4.546669">
        <ele>497.1</ele>
        <time>2013-12-06T09:58:53Z</time>
      </trkpt>
      <trkpt lat="36.866230" lon="-4.546040">
        <ele>505.3</ele>
        <time>2013-12-06T09:59:12Z</time>
      </trkpt>
      <trkpt lat="36.866320" lon="-4.545340">
        <ele>499.5</ele>
        <time>2013-12-06T09:59:24Z</time>
      </trkpt>
      <trkpt lat="36.866340" lon="-4.543700">
        <ele>504.3</ele>
        <time>2013-12-06T09:59:48Z</time>
      </trkpt>
      <trkpt lat="36.866340" lon="-4.543340">
        <ele>503.9</ele>
        <time>2013-12-06T10:00:07Z</time>
      </trkpt>
      <trkpt lat="36.866620" lon="-4.542760">
        <ele>512.9</ele>
        <time>2013-12-06T10:00:28Z</time>
      </trkpt>
      <trkpt lat="36.867410" lon="-4.542680">
        <ele>529.6</ele>
        <time>2013-12-06T10:00:48Z</time>
      </trkpt>
      <trkpt lat="36.868770" lon="-4.543210">
        <ele>529.5</ele>
        <time>2013-12-06T10:01:09Z</time>
      </trkpt>
      <trkpt lat="36.869070" lon="-4.543620">
        <ele>525.5</ele>
        <time>2013-12-06T10:01:27Z</time>
      </trkpt>
      <trkpt lat="36.869280" lon="-4.544610">
        <ele>528.5</ele>
        <time>2013-12-06T10:01:48Z</time>
      </trkpt>
      <trkpt lat="36.870220" lon="-4.544630">
        <ele>516.1</ele>
        <time>2013-12-06T10:02:04Z</time>
      </trkpt>
      <trkpt lat="36.870350" lon="-4.544800">
        <ele>513.4</ele>
        <time>2013-12-06T10:02:15Z</time>
      </trkpt>
      <trkpt lat="36.870400" lon="-4.545530">
        <ele>514.6</ele>
        <time>2013-12-06T10:02:37Z</time>
      </trkpt>
      <trkpt lat="36.870250" lon="-4.546240">
        <ele>517.2</ele>
        <time>2013-12-06T10:02:57Z</time>
      </trkpt>
      <trkpt lat="36.871100" lon="-4.545510">
        <ele>510.6</ele>
        <time>2013-12-06T10:03:22Z</time>
      </trkpt>
      <trkpt lat="36.871830" lon="-4.545530">
        <ele>512.6</ele>
      </trkpt>
      <trkpt lat="36.872580" lon="-4.545310">
        <ele>506.4</ele>
      </trkpt>
      <trkpt lat="36.873290" lon="-4.545590">
        <ele>506.0</ele>
      </trkpt>
      <trkpt lat="36.873961" lon="-4.544070">
        <ele>491.1</ele>
      </trkpt>
      <trkpt lat="36.874451" lon="-4.543550">
        <ele>487.6</ele>
      </trkpt>
      <trkpt lat="36.876230" lon="-4.543060">
        <ele>476.4</ele>
      </trkpt>
      <trkpt lat="36.877010" lon="-4.540620">
        <ele>442.7</ele>
      </trkpt>
      <trkpt lat="36.878230" lon="-4.537850">
        <ele>428.0</ele>
      </trkpt>
      <trkpt lat="36.879110" lon="-4.536220">
        <ele>411.5</ele>
      </trkpt>
      <trkpt lat="36.879260" lon="-4.535360">
        <ele>408.2</ele>
      </trkpt>
      <trkpt lat="36.878870" lon="-4.535060">
        <ele>405.4</ele>
      </trkpt>
      <trkpt lat="36.878420" lon="-4.534200">
        <ele>395.8</ele>
      </trkpt>
      <trkpt lat="36.878460" lon="-4.533040">
        <ele>388.2</ele>
      </trkpt>
      <trkpt lat="36.878960" lon="-4.532800">
        <ele>389.3</ele>
      </trkpt>
      <trkpt lat="36.880270" lon="-4.532700">
        <ele>383.3</ele>
      </trkpt>
      <trkpt lat="36.881360" lon="-4.532500">
        <ele>364.0</ele>
      </trkpt>
      <trkpt lat="36.881810" lon="-4.533470">
        <ele>358.1</ele>
      </trkpt>
      <trkpt lat="36.882480" lon="-4.533640">
        <ele>364.1</ele>
      </trkpt>
      <trkpt lat="36.882630" lon="-4.533280">
        <ele>366.3</ele>
      </trkpt>
      <trkpt lat="36.882880" lon="-4.532610">
        <ele>371.2</ele>
      </trkpt>
      <trkpt lat="36.883210" lon="-4.532530">
        <ele>377.4</ele>
      </trkpt>
      <trkpt lat="36.883380" lon="-4.533190">
        <ele>384.9</ele>
      </trkpt>
      <trkpt lat="36.883460" lon="-4.533380">
        <ele>387.1</ele>
      </trkpt>
      <trkpt lat="36.883640" lon="-4.533470">
        <ele>391.3</ele>
      </trkpt>
      <trkpt lat="36.884540" lon="-4.533190">
        <ele>404.2</ele>
      </trkpt>
      <trkpt lat="36.885220" lon="-4.532760">
        <ele>406.7</ele>
      </trkpt>
      <trkpt lat="36.885330" lon="-4.530720">
        <ele>410.3</ele>
      </trkpt>
      <trkpt lat="36.885290" lon="-4.529160">
        <ele>418.0</ele>
      </trkpt>
      <trkpt lat="36.885930" lon="-4.526800">
        <ele>410.9</ele>
      </trkpt>
      <trkpt lat="36.886380" lon="-4.526800">
        <ele>409.3</ele>
      </trkpt>
      <trkpt lat="36.887260" lon="-4.526370">
        <ele>403.7</ele>
      </trkpt>
      <trkpt lat="36.888160" lon="-4.525040">
        <ele>409.2</ele>
      </trkpt>
      <trkpt lat="36.889940" lon="-4.523150">
        <ele>412.0</ele>
      </trkpt>
      <trkpt lat="36.890720" lon="-4.521950">
        <ele>406.7</ele>
      </trkpt>
      <trkpt lat="36.890780" lon="-4.521410">
        <ele>402.3</ele>
      </trkpt>
      <trkpt lat="36.891360" lon="-4.520790">
        <ele>398.7</ele>
      </trkpt>
      <trkpt lat="36.891850" lon="-4.520270">
        <ele>394.5</ele>
      </trkpt>
      <trkpt lat="36.893140" lon="-4.517550">
        <ele>365.7</ele>
      </trkpt>
      <trkpt lat="36.893460" lon="-4.517100">
        <ele>362.6</ele>
      </trkpt>
      <trkpt lat="36.893270" lon="-4.516670">
        <ele>360.2</ele>
      </trkpt>
      <trkpt lat="36.893480" lon="-4.516320">
        <ele>359.3</ele>
      </trkpt>
      <trkpt lat="36.893446" lon="-4.516111">
        <ele>352.0</ele>
      </trkpt>
      <trkpt lat="36.893465" lon="-4.516060">
        <ele>351.5</ele>
      </trkpt>
      <trkpt lat="36.893489" lon="-4.515917">
        <ele>352.5</ele>
      </trkpt>
      <trkpt lat="36.893455" lon="-4.515142">
        <ele>360.2</ele>
      </trkpt>
      <trkpt lat="36.893276" lon="-4.514474">
        <ele>360.2</ele>
      </trkpt>
      <trkpt lat="36.893200" lon="-4.514052">
        <ele>362.1</ele>
      </trkpt>
      <trkpt lat="36.893149" lon="-4.513705">
        <ele>363.5</ele>
      </trkpt>
      <trkpt lat="36.893131" lon="-4.513480">
        <ele>364.0</ele>
      </trkpt>
      <trkpt lat="36.893137" lon="-4.513465">
        <ele>365.4</ele>
      </trkpt>
      <trkpt lat="36.893190" lon="-4.513183">
        <ele>367.4</ele>
      </trkpt>
      <trkpt lat="36.893240" lon="-4.513032">
        <ele>367.8</ele>
      </trkpt>
      <trkpt lat="36.893371" lon="-4.512682">
        <ele>368.8</ele>
      </trkpt>
      <trkpt lat="36.893388" lon="-4.512309">
        <ele>371.2</ele>
      </trkpt>
      <trkpt lat="36.893303" lon="-4.512028">
        <ele>374.1</ele>
      </trkpt>
      <trkpt lat="36.893273" lon="-4.511613">
        <ele>375.5</ele>
      </trkpt>
      <trkpt lat="36.893404" lon="-4.510703">
        <ele>374.1</ele>
      </trkpt>
      <trkpt lat="36.893547" lon="-4.510277">
        <ele>374.1</ele>
      </trkpt>
      <trkpt lat="36.893916" lon="-4.510026">
        <ele>375.1</ele>
      </trkpt>
      <trkpt lat="36.894141" lon="-4.510048">
        <ele>375.1</ele>
      </trkpt>
      <trkpt lat="36.894708" lon="-4.510394">
        <ele>375.1</ele>
      </trkpt>
      <trkpt lat="36.895285" lon="-4.510608">
        <ele>377.5</ele>
      </trkpt>
      <trkpt lat="36.895969" lon="-4.511006">
        <ele>380.3</ele>
      </trkpt>
      <trkpt lat="36.896191" lon="-4.511079">
        <ele>381.8</ele>
      </trkpt>
      <trkpt lat="36.896537" lon="-4.511112">
        <ele>382.7</ele>
      </trkpt>
      <trkpt lat="36.897040" lon="-4.511362">
        <ele>384.7</ele>
      </trkpt>
      <trkpt lat="36.897280" lon="-4.511385">
        <ele>385.6</ele>
      </trkpt>
      <trkpt lat="36.897983" lon="-4.511023">
        <ele>392.8</ele>
      </trkpt>
      <trkpt lat="36.899097" lon="-4.510614">
        <ele>396.7</ele>
      </trkpt>
      <trkpt lat="36.899929" lon="-4.510381">
        <ele>401.0</ele>
      </trkpt>
      <trkpt lat="36.900675" lon="-4.510213">
        <ele>406.8</ele>
      </trkpt>
      <trkpt lat="36.901371" lon="-4.510016">
        <ele>414.5</ele>
      </trkpt>
      <trkpt lat="36.901432" lon="-4.509981">
        <ele>415.4</ele>
      </trkpt>
      <trkpt lat="36.901663" lon="-4.509848">
        <ele>416.4</ele>
      </trkpt>
      <trkpt lat="36.901653" lon="-4.509901">
        <ele>414.9</ele>
      </trkpt>
      <trkpt lat="36.901663" lon="-4.509866">
        <ele>415.4</ele>
      </trkpt>
      <trkpt lat="36.901635" lon="-4.509863">
        <ele>414.9</ele>
      </trkpt>
      <trkpt lat="36.901620" lon="-4.509900">
        <ele>415.4</ele>
      </trkpt>
      <trkpt lat="36.901623" lon="-4.509891">
        <ele>414.9</ele>
      </trkpt>
      <trkpt lat="36.901639" lon="-4.509939">
        <ele>414.9</ele>
      </trkpt>
      <trkpt lat="36.901603" lon="-4.510154">
        <ele>414.0</ele>
      </trkpt>
      <trkpt lat="36.901589" lon="-4.510174">
        <ele>414.0</ele>
      </trkpt>
      <trkpt lat="36.901575" lon="-4.510229">
        <ele>414.5</ele>
      </trkpt>
      <trkpt lat="36.901668" lon="-4.510251">
        <ele>414.9</ele>
      </trkpt>
      <trkpt lat="36.901934" lon="-4.510205">
        <ele>418.8</ele>
      </trkpt>
      <trkpt lat="36.902060" lon="-4.510223">
        <ele>420.2</ele>
      </trkpt>
      <trkpt lat="36.902211" lon="-4.510245">
        <ele>422.6</ele>
      </trkpt>
      <trkpt lat="36.902338" lon="-4.510225">
        <ele>425.0</ele>
      </trkpt>
      <trkpt lat="36.902351" lon="-4.510222">
        <ele>425.0</ele>
      </trkpt>
      <trkpt lat="36.902507" lon="-4.510225">
        <ele>427.9</ele>
      </trkpt>
      <trkpt lat="36.902588" lon="-4.510211">
        <ele>429.8</ele>
      </trkpt>
      <trkpt lat="36.902760" lon="-4.510197">
        <ele>433.7</ele>
      </trkpt>
      <trkpt lat="36.902807" lon="-4.510190">
        <ele>435.1</ele>
      </trkpt>
      <trkpt lat="36.902872" lon="-4.510226">
        <ele>436.1</ele>
      </trkpt>
      <trkpt lat="36.902877" lon="-4.510238">
        <ele>436.6</ele>
      </trkpt>
      <trkpt lat="36.902898" lon="-4.510299">
        <ele>438.0</ele>
      </trkpt>
      <trkpt lat="36.902884" lon="-4.510438">
        <ele>438.5</ele>
      </trkpt>
      <trkpt lat="36.902883" lon="-4.510457">
        <ele>438.5</ele>
      </trkpt>
      <trkpt lat="36.902931" lon="-4.510526">
        <ele>439.9</ele>
      </trkpt>
      <trkpt lat="36.903037" lon="-4.510549">
        <ele>442.8</ele>
      </trkpt>
      <trkpt lat="36.903101" lon="-4.510537">
        <ele>444.3</ele>
      </trkpt>
      <trkpt lat="36.903131" lon="-4.510544">
        <ele>444.7</ele>
      </trkpt>
      <trkpt lat="36.903271" lon="-4.510559">
        <ele>448.1</ele>
      </trkpt>
      <trkpt lat="36.903339" lon="-4.510558">
        <ele>449.6</ele>
      </trkpt>
      <trkpt lat="36.903441" lon="-4.510608">
        <ele>450.5</ele>
      </trkpt>
      <trkpt lat="36.903532" lon="-4.510850">
        <ele>450.0</ele>
      </trkpt>
      <trkpt lat="36.903551" lon="-4.510897">
        <ele>449.6</ele>
      </trkpt>
      <trkpt lat="36.903633" lon="-4.510942">
        <ele>447.6</ele>
      </trkpt>
      <trkpt lat="36.903868" lon="-4.510980">
        <ele>442.8</ele>
      </trkpt>
      <trkpt lat="36.904092" lon="-4.511021">
        <ele>441.4</ele>
      </trkpt>
      <trkpt lat="36.904129" lon="-4.510983">
        <ele>441.4</ele>
      </trkpt>
      <trkpt lat="36.904139" lon="-4.510690">
        <ele>444.3</ele>
      </trkpt>
      <trkpt lat="36.904140" lon="-4.510678">
        <ele>444.3</ele>
      </trkpt>
      <trkpt lat="36.904154" lon="-4.510668">
        <ele>444.7</ele>
      </trkpt>
      <trkpt lat="36.904177" lon="-4.510669">
        <ele>444.7</ele>
      </trkpt>
      <trkpt lat="36.904271" lon="-4.510676">
        <ele>443.8</ele>
      </trkpt>
      <trkpt lat="36.904407" lon="-4.510679">
        <ele>441.9</ele>
      </trkpt>
      <trkpt lat="36.904703" lon="-4.510701">
        <ele>438.0</ele>
      </trkpt>
      <trkpt lat="36.904994" lon="-4.510749">
        <ele>435.1</ele>
      </trkpt>
      <trkpt lat="36.905093" lon="-4.510742">
        <ele>435.6</ele>
      </trkpt>
      <trkpt lat="36.905296" lon="-4.510722">
        <ele>437.5</ele>
      </trkpt>
      <trkpt lat="36.905370" lon="-4.510740">
        <ele>438.5</ele>
      </trkpt>
      <trkpt lat="36.905595" lon="-4.510798">
        <ele>441.4</ele>
      </trkpt>
      <trkpt lat="36.905791" lon="-4.510877">
        <ele>444.3</ele>
      </trkpt>
      <trkpt lat="36.905868" lon="-4.510978">
        <ele>444.7</ele>
      </trkpt>
      <trkpt lat="36.905866" lon="-4.511041">
        <ele>444.7</ele>
      </trkpt>
      <trkpt lat="36.905737" lon="-4.511300">
        <ele>446.7</ele>
      </trkpt>
      <trkpt lat="36.905633" lon="-4.511600">
        <ele>445.2</ele>
      </trkpt>
      <trkpt lat="36.905580" lon="-4.511858">
        <ele>445.7</ele>
      </trkpt>
      <trkpt lat="36.905548" lon="-4.512069">
        <ele>446.7</ele>
      </trkpt>
      <trkpt lat="36.905514" lon="-4.512169">
        <ele>447.2</ele>
      </trkpt>
      <trkpt lat="36.905449" lon="-4.512459">
        <ele>448.1</ele>
      </trkpt>
      <trkpt lat="36.905428" lon="-4.512717">
        <ele>448.6</ele>
      </trkpt>
      <trkpt lat="36.905353" lon="-4.512980">
        <ele>447.6</ele>
      </trkpt>
      <trkpt lat="36.905303" lon="-4.513299">
        <ele>445.7</ele>
      </trkpt>
      <trkpt lat="36.905324" lon="-4.513578">
        <ele>443.3</ele>
      </trkpt>
      <trkpt lat="36.905373" lon="-4.513763">
        <ele>441.9</ele>
      </trkpt>
      <trkpt lat="36.905446" lon="-4.513978">
        <ele>440.4</ele>
      </trkpt>
      <trkpt lat="36.905485" lon="-4.514160">
        <ele>440.4</ele>
      </trkpt>
      <trkpt lat="36.905465" lon="-4.514191">
        <ele>440.4</ele>
      </trkpt>
      <trkpt lat="36.905431" lon="-4.514217">
        <ele>440.4</ele>
      </trkpt>
      <trkpt lat="36.905419" lon="-4.514224">
        <ele>440.9</ele>
      </trkpt>
      <trkpt lat="36.905415" lon="-4.514228">
        <ele>440.9</ele>
      </trkpt>
      <trkpt lat="36.905402" lon="-4.514157">
        <ele>447.5</ele>
      </trkpt>
      <trkpt lat="36.904887" lon="-4.515374">
        <ele>450.6</ele>
      </trkpt>
      <trkpt lat="36.904248" lon="-4.518074">
        <ele>467.8</ele>
      </trkpt>
      <trkpt lat="36.904288" lon="-4.518297">
        <ele>466.5</ele>
      </trkpt>
      <trkpt lat="36.904350" lon="-4.518689">
        <ele>464.0</ele>
      </trkpt>
      <trkpt lat="36.904445" lon="-4.518826">
        <ele>462.3</ele>
      </trkpt>
      <trkpt lat="36.904368" lon="-4.518819">
        <ele>462.2</ele>
      </trkpt>
      <trkpt lat="36.904348" lon="-4.518833">
        <ele>461.9</ele>
      </trkpt>
      <trkpt lat="36.904399" lon="-4.519181">
        <ele>457.1</ele>
      </trkpt>
      <trkpt lat="36.904878" lon="-4.520845">
        <ele>444.4</ele>
      </trkpt>
      <trkpt lat="36.905069" lon="-4.521137">
        <ele>442.7</ele>
      </trkpt>
      <trkpt lat="36.905164" lon="-4.521261">
        <ele>442.0</ele>
      </trkpt>
      <trkpt lat="36.905097" lon="-4.522140">
        <ele>431.7</ele>
      </trkpt>
      <trkpt lat="36.905764" lon="-4.524601">
        <ele>414.1</ele>
      </trkpt>
      <trkpt lat="36.905942" lon="-4.524686">
        <ele>411.8</ele>
      </trkpt>
      <trkpt lat="36.906477" lon="-4.524565">
        <ele>412.0</ele>
      </trkpt>
      <trkpt lat="36.906451" lon="-4.524752">
        <ele>408.7</ele>
      </trkpt>
      <trkpt lat="36.906559" lon="-4.524556">
        <ele>411.8</ele>
      </trkpt>
      <trkpt lat="36.907422" lon="-4.523859">
        <ele>412.5</ele>
      </trkpt>
      <trkpt lat="36.908222" lon="-4.523247">
        <ele>413.0</ele>
      </trkpt>
      <trkpt lat="36.909841" lon="-4.522952">
        <ele>412.8</ele>
      </trkpt>
      <trkpt lat="36.912610" lon="-4.523510">
        <ele>407.0</ele>
      </trkpt>
      <trkpt lat="36.916285" lon="-4.523628">
        <ele>415.6</ele>
      </trkpt>
      <trkpt lat="36.916791" lon="-4.523434">
        <ele>416.9</ele>
      </trkpt>
      <trkpt lat="36.917503" lon="-4.524416">
        <ele>426.3</ele>
      </trkpt>
      <trkpt lat="36.918572" lon="-4.524867">
        <ele>435.1</ele>
      </trkpt>
      <trkpt lat="36.918713" lon="-4.524782">
        <ele>435.9</ele>
      </trkpt>
      <trkpt lat="36.918894" lon="-4.524595">
        <ele>436.2</ele>
      </trkpt>
      <trkpt lat="36.919700" lon="-4.524250">
        <ele>439.7</ele>
      </trkpt>
      <trkpt lat="36.921173" lon="-4.523953">
        <ele>451.4</ele>
      </trkpt>
      <trkpt lat="36.921419" lon="-4.523695">
        <ele>451.8</ele>
      </trkpt>
      <trkpt lat="36.921466" lon="-4.523616">
        <ele>451.5</ele>
      </trkpt>
      <trkpt lat="36.921690" lon="-4.523431">
        <ele>452.4</ele>
      </trkpt>
      <trkpt lat="36.922400" lon="-4.523123">
        <ele>457.5</ele>
      </trkpt>
      <trkpt lat="36.923041" lon="-4.523723">
        <ele>467.2</ele>
      </trkpt>
      <trkpt lat="36.924362" lon="-4.523453">
        <ele>476.2</ele>
      </trkpt>
      <trkpt lat="36.925017" lon="-4.523082">
        <ele>479.5</ele>
      </trkpt>
      <trkpt lat="36.926313" lon="-4.522865">
        <ele>491.5</ele>
      </trkpt>
      <trkpt lat="36.926795" lon="-4.522896">
        <ele>495.7</ele>
      </trkpt>
      <trkpt lat="36.927054" lon="-4.523254">
        <ele>498.9</ele>
      </trkpt>
      <trkpt lat="36.927892" lon="-4.523485">
        <ele>506.2</ele>
      </trkpt>
      <trkpt lat="36.929266" lon="-4.523360">
        <ele>514.8</ele>
      </trkpt>
      <trkpt lat="36.930201" lon="-4.522969">
        <ele>517.6</ele>
      </trkpt>
      <trkpt lat="36.932025" lon="-4.521710">
        <ele>528.9</ele>
      </trkpt>
      <trkpt lat="36.932036" lon="-4.521709">
        <ele>529.1</ele>
      </trkpt>
      <trkpt lat="36.932158" lon="-4.521822">
        <ele>532.3</ele>
      </trkpt>
      <trkpt lat="36.932008" lon="-4.522160">
        <ele>533.3</ele>
      </trkpt>
      <trkpt lat="36.931726" lon="-4.523073">
        <ele>536.3</ele>
      </trkpt>
      <trkpt lat="36.931660" lon="-4.524150">
        <ele>549.3</ele>
      </trkpt>
      <trkpt lat="36.931614" lon="-4.524252">
        <ele>550.0</ele>
      </trkpt>
      <trkpt lat="36.931480" lon="-4.524698">
        <ele>554.6</ele>
      </trkpt>
      <trkpt lat="36.931366" lon="-4.524980">
        <ele>557.6</ele>
      </trkpt>
      <trkpt lat="36.930976" lon="-4.525834">
        <ele>568.2</ele>
      </trkpt>
      <trkpt lat="36.930916" lon="-4.531296">
        <ele>604.8</ele>
      </trkpt>
      <trkpt lat="36.931023" lon="-4.530853">
        <ele>607.2</ele>
      </trkpt>
      <trkpt lat="36.931091" lon="-4.530746">
        <ele>604.2</ele>
      </trkpt>
      <trkpt lat="36.931320" lon="-4.530945">
        <ele>617.9</ele>
      </trkpt>
      <trkpt lat="36.931534" lon="-4.531082">
        <ele>611.5</ele>
      </trkpt>
      <trkpt lat="36.932220" lon="-4.532074">
        <ele>633.3</ele>
      </trkpt>
      <trkpt lat="36.932358" lon="-4.532120">
        <ele>626.6</ele>
      </trkpt>
      <trkpt lat="36.932961" lon="-4.532928">
        <ele>630.6</ele>
      </trkpt>
      <trkpt lat="36.933044" lon="-4.533188">
        <ele>635.9</ele>
      </trkpt>
      <trkpt lat="36.933113" lon="-4.533325">
        <ele>636.5</ele>
      </trkpt>
      <trkpt lat="36.933548" lon="-4.534073">
        <ele>643.7</ele>
      </trkpt>
      <trkpt lat="36.933716" lon="-4.534286">
        <ele>649.0</ele>
      </trkpt>
      <trkpt lat="36.933990" lon="-4.534607">
        <ele>650.7</ele>
      </trkpt>
      <trkpt lat="36.934311" lon="-4.534912">
        <ele>654.1</ele>
      </trkpt>
      <trkpt lat="36.934319" lon="-4.534973">
        <ele>654.0</ele>
      </trkpt>
      <trkpt lat="36.934471" lon="-4.535095">
        <ele>657.6</ele>
      </trkpt>
      <trkpt lat="36.934555" lon="-4.535233">
        <ele>659.3</ele>
      </trkpt>
      <trkpt lat="36.934746" lon="-4.535400">
        <ele>664.2</ele>
      </trkpt>
      <trkpt lat="36.934914" lon="-4.535568">
        <ele>664.7</ele>
      </trkpt>
      <trkpt lat="36.935432" lon="-4.536316">
        <ele>679.1</ele>
      </trkpt>
      <trkpt lat="36.936302" lon="-4.537460">
        <ele>693.3</ele>
      </trkpt>
      <trkpt lat="36.937103" lon="-4.538956">
        <ele>701.1</ele>
      </trkpt>
      <trkpt lat="36.937080" lon="-4.539154">
        <ele>703.8</ele>
      </trkpt>
      <trkpt lat="36.936935" lon="-4.539627">
        <ele>705.2</ele>
      </trkpt>
      <trkpt lat="36.936798" lon="-4.540085">
        <ele>702.9</ele>
      </trkpt>
      <trkpt lat="36.936996" lon="-4.540985">
        <ele>712.0</ele>
      </trkpt>
      <trkpt lat="36.936981" lon="-4.541428">
        <ele>707.9</ele>
      </trkpt>
      <trkpt lat="36.936745" lon="-4.542007">
        <ele>710.0</ele>
      </trkpt>
      <trkpt lat="36.936707" lon="-4.542419">
        <ele>705.4</ele>
      </trkpt>
      <trkpt lat="36.936806" lon="-4.544312">
        <ele>724.8</ele>
      </trkpt>
      <trkpt lat="36.936844" lon="-4.545013">
        <ele>725.7</ele>
      </trkpt>
      <trkpt lat="36.936844" lon="-4.545273">
        <ele>722.2</ele>
      </trkpt>
      <trkpt lat="36.936806" lon="-4.545334">
        <ele>724.8</ele>
      </trkpt>
      <trkpt lat="36.936745" lon="-4.545334">
        <ele>723.8</ele>
      </trkpt>
      <trkpt lat="36.936737" lon="-4.545395">
        <ele>722.1</ele>
      </trkpt>
      <trkpt lat="36.936707" lon="-4.545471">
        <ele>713.5</ele>
      </trkpt>
      <trkpt lat="36.936699" lon="-4.545532">
        <ele>713.1</ele>
      </trkpt>
      <trkpt lat="36.936737" lon="-4.545486">
        <ele>713.5</ele>
      </trkpt>
      <trkpt lat="36.936798" lon="-4.545471">
        <ele>709.6</ele>
      </trkpt>
      <trkpt lat="36.936699" lon="-4.545547">
        <ele>722.2</ele>
      </trkpt>
      <trkpt lat="36.936630" lon="-4.545685">
        <ele>726.8</ele>
      </trkpt>
      <trkpt lat="36.936478" lon="-4.546646">
        <ele>742.3</ele>
      </trkpt>
      <trkpt lat="36.936272" lon="-4.547226">
        <ele>742.3</ele>
      </trkpt>
      <trkpt lat="36.936401" lon="-4.548141">
        <ele>745.8</ele>
      </trkpt>
      <trkpt lat="36.935875" lon="-4.549347">
        <ele>755.7</ele>
      </trkpt>
      <trkpt lat="36.935822" lon="-4.549545">
        <ele>754.4</ele>
      </trkpt>
      <trkpt lat="36.935799" lon="-4.549988">
        <ele>757.9</ele>
      </trkpt>
      <trkpt lat="36.935822" lon="-4.550308">
        <ele>753.7</ele>
      </trkpt>
      <trkpt lat="36.936157" lon="-4.550781">
        <ele>752.0</ele>
      </trkpt>
      <trkpt lat="36.936195" lon="-4.551132">
        <ele>754.6</ele>
      </trkpt>
      <trkpt lat="36.936066" lon="-4.551361">
        <ele>762.4</ele>
      </trkpt>
      <trkpt lat="36.935989" lon="-4.552032">
        <ele>766.3</ele>
      </trkpt>
      <trkpt lat="36.935730" lon="-4.552551">
        <ele>767.9</ele>
      </trkpt>
      <trkpt lat="36.935730" lon="-4.552872">
        <ele>771.5</ele>
      </trkpt>
      <trkpt lat="36.935875" lon="-4.553192">
        <ele>769.5</ele>
      </trkpt>
      <trkpt lat="36.935921" lon="-4.553238">
        <ele>767.0</ele>
      </trkpt>
      <trkpt lat="36.936127" lon="-4.553268">
        <ele>769.1</ele>
      </trkpt>
      <trkpt lat="36.936378" lon="-4.553467">
        <ele>767.0</ele>
      </trkpt>
      <trkpt lat="36.936455" lon="-4.554169">
        <ele>760.3</ele>
      </trkpt>
      <trkpt lat="36.936195" lon="-4.555298">
        <ele>766.1</ele>
      </trkpt>
      <trkpt lat="36.936195" lon="-4.555634">
        <ele>766.2</ele>
      </trkpt>
      <trkpt lat="36.936058" lon="-4.556671">
        <ele>760.2</ele>
      </trkpt>
      <trkpt lat="36.935822" lon="-4.556961">
        <ele>767.2</ele>
      </trkpt>
      <trkpt lat="36.935074" lon="-4.558258">
        <ele>771.1</ele>
      </trkpt>
      <trkpt lat="36.934860" lon="-4.558441">
        <ele>772.2</ele>
      </trkpt>
      <trkpt lat="36.934746" lon="-4.558960">
        <ele>773.4</ele>
      </trkpt>
      <trkpt lat="36.934113" lon="-4.559113">
        <ele>776.4</ele>
      </trkpt>
      <trkpt lat="36.934074" lon="-4.559631">
        <ele>778.4</ele>
      </trkpt>
      <trkpt lat="36.933807" lon="-4.560272">
        <ele>777.0</ele>
      </trkpt>
      <trkpt lat="36.932907" lon="-4.561111">
        <ele>780.7</ele>
      </trkpt>
      <trkpt lat="36.932304" lon="-4.562012">
        <ele>775.6</ele>
      </trkpt>
      <trkpt lat="36.932037" lon="-4.562714">
        <ele>771.0</ele>
      </trkpt>
      <trkpt lat="36.932068" lon="-4.565186">
        <ele>754.3</ele>
      </trkpt>
      <trkpt lat="36.931648" lon="-4.566788">
        <ele>746.8</ele>
      </trkpt>
      <trkpt lat="36.931320" lon="-4.567627">
        <ele>740.4</ele>
      </trkpt>
      <trkpt lat="36.931213" lon="-4.570526">
        <ele>748.4</ele>
      </trkpt>
      <trkpt lat="36.930984" lon="-4.571518">
        <ele>748.5</ele>
      </trkpt>
      <trkpt lat="36.930962" lon="-4.571640">
        <ele>747.8</ele>
      </trkpt>
      <trkpt lat="36.931412" lon="-4.573532">
        <ele>766.6</ele>
      </trkpt>
      <trkpt lat="36.931465" lon="-4.573914">
        <ele>764.2</ele>
      </trkpt>
      <trkpt lat="36.932610" lon="-4.574326">
        <ele>762.9</ele>
      </trkpt>
      <trkpt lat="36.933296" lon="-4.574326">
        <ele>767.9</ele>
      </trkpt>
      <trkpt lat="36.933510" lon="-4.574814">
        <ele>774.0</ele>
      </trkpt>
      <trkpt lat="36.933601" lon="-4.575073">
        <ele>772.0</ele>
      </trkpt>
      <trkpt lat="36.934151" lon="-4.575714">
        <ele>768.6</ele>
      </trkpt>
      <trkpt lat="36.934311" lon="-4.575821">
        <ele>771.6</ele>
      </trkpt>
      <trkpt lat="36.934608" lon="-4.576111">
        <ele>772.0</ele>
      </trkpt>
      <trkpt lat="36.934921" lon="-4.576324">
        <ele>775.8</ele>
      </trkpt>
      <trkpt lat="36.935822" lon="-4.576767">
        <ele>774.2</ele>
      </trkpt>
      <trkpt lat="36.936378" lon="-4.577286">
        <ele>777.9</ele>
      </trkpt>
      <trkpt lat="36.936798" lon="-4.577911">
        <ele>782.3</ele>
      </trkpt>
      <trkpt lat="36.937622" lon="-4.578918">
        <ele>778.8</ele>
      </trkpt>
      <trkpt lat="36.938927" lon="-4.579437">
        <ele>784.3</ele>
      </trkpt>
      <trkpt lat="36.939186" lon="-4.579498">
        <ele>782.1</ele>
      </trkpt>
      <trkpt lat="36.940140" lon="-4.580124">
        <ele>784.4</ele>
      </trkpt>
      <trkpt lat="36.941071" lon="-4.580093">
        <ele>792.3</ele>
      </trkpt>
      <trkpt lat="36.941238" lon="-4.580307">
        <ele>793.5</ele>
      </trkpt>
      <trkpt lat="36.941490" lon="-4.580521">
        <ele>791.3</ele>
      </trkpt>
      <trkpt lat="36.941887" lon="-4.581085">
        <ele>784.6</ele>
      </trkpt>
      <trkpt lat="36.942215" lon="-4.581192">
        <ele>784.0</ele>
      </trkpt>
      <trkpt lat="36.942421" lon="-4.581573">
        <ele>788.8</ele>
      </trkpt>
      <trkpt lat="36.943535" lon="-4.582413">
        <ele>816.1</ele>
      </trkpt>
      <trkpt lat="36.945549" lon="-4.583511">
        <ele>828.1</ele>
      </trkpt>
      <trkpt lat="36.946182" lon="-4.583725">
        <ele>835.4</ele>
      </trkpt>
      <trkpt lat="36.946465" lon="-4.583878">
        <ele>834.0</ele>
      </trkpt>
      <trkpt lat="36.947266" lon="-4.583893">
        <ele>849.6</ele>
      </trkpt>
      <trkpt lat="36.947723" lon="-4.583847">
        <ele>853.9</ele>
      </trkpt>
      <trkpt lat="36.948158" lon="-4.584244">
        <ele>855.6</ele>
      </trkpt>
      <trkpt lat="36.948647" lon="-4.584137">
        <ele>860.1</ele>
      </trkpt>
      <trkpt lat="36.949249" lon="-4.584518">
        <ele>869.8</ele>
      </trkpt>
      <trkpt lat="36.950020" lon="-4.584991">
        <ele>869.0</ele>
      </trkpt>
      <trkpt lat="36.950363" lon="-4.585434">
        <ele>871.8</ele>
      </trkpt>
      <trkpt lat="36.950424" lon="-4.585480">
        <ele>871.7</ele>
      </trkpt>
      <trkpt lat="36.950729" lon="-4.585785">
        <ele>867.1</ele>
      </trkpt>
      <trkpt lat="36.951263" lon="-4.585358">
        <ele>878.3</ele>
      </trkpt>
      <trkpt lat="36.951775" lon="-4.585144">
        <ele>885.4</ele>
      </trkpt>
      <trkpt lat="36.952080" lon="-4.584885">
        <ele>881.5</ele>
      </trkpt>
      <trkpt lat="36.952583" lon="-4.584885">
        <ele>882.5</ele>
      </trkpt>
      <trkpt lat="36.953171" lon="-4.584564">
        <ele>891.3</ele>
      </trkpt>
      <trkpt lat="36.953484" lon="-4.584351">
        <ele>893.6</ele>
      </trkpt>
      <trkpt lat="36.953812" lon="-4.584305">
        <ele>897.9</ele>
      </trkpt>
      <trkpt lat="36.954536" lon="-4.584305">
        <ele>901.5</ele>
      </trkpt>
      <trkpt lat="36.954834" lon="-4.584152">
        <ele>908.1</ele>
      </trkpt>
      <trkpt lat="36.955086" lon="-4.584060">
        <ele>908.4</ele>
      </trkpt>
      <trkpt lat="36.955933" lon="-4.583939">
        <ele>918.9</ele>
      </trkpt>
      <trkpt lat="36.956245" lon="-4.583832">
        <ele>918.7</ele>
      </trkpt>
      <trkpt lat="36.956718" lon="-4.583878">
        <ele>922.0</ele>
      </trkpt>
      <trkpt lat="36.957283" lon="-4.583420">
        <ele>926.2</ele>
      </trkpt>
      <trkpt lat="36.957718" lon="-4.583084">
        <ele>925.0</ele>
      </trkpt>
      <trkpt lat="36.958092" lon="-4.582870">
        <ele>926.8</ele>
      </trkpt>
      <trkpt lat="36.958595" lon="-4.582199">
        <ele>940.3</ele>
      </trkpt>
      <trkpt lat="36.958977" lon="-4.581665">
        <ele>944.1</ele>
      </trkpt>
      <trkpt lat="36.959251" lon="-4.580826">
        <ele>948.3</ele>
      </trkpt>
      <trkpt lat="36.959320" lon="-4.580566">
        <ele>947.5</ele>
      </trkpt>
      <trkpt lat="36.960098" lon="-4.579361">
        <ele>958.3</ele>
      </trkpt>
      <trkpt lat="36.960884" lon="-4.578552">
        <ele>962.4</ele>
      </trkpt>
      <trkpt lat="36.962685" lon="-4.577225">
        <ele>976.2</ele>
      </trkpt>
      <trkpt lat="36.963783" lon="-4.576859">
        <ele>979.7</ele>
      </trkpt>
      <trkpt lat="36.965355" lon="-4.576080">
        <ele>973.1</ele>
      </trkpt>
      <trkpt lat="36.967194" lon="-4.576035">
        <ele>977.9</ele>
      </trkpt>
      <trkpt lat="36.968689" lon="-4.575851">
        <ele>979.8</ele>
      </trkpt>
      <trkpt lat="36.969559" lon="-4.575958">
        <ele>972.8</ele>
      </trkpt>
      <trkpt lat="36.969589" lon="-4.576019">
        <ele>970.7</ele>
      </trkpt>
      <trkpt lat="36.969688" lon="-4.575928">
        <ele>976.3</ele>
      </trkpt>
      <trkpt lat="36.970299" lon="-4.575867">
        <ele>975.8</ele>
      </trkpt>
      <trkpt lat="36.970726" lon="-4.575638">
        <ele>975.4</ele>
      </trkpt>
      <trkpt lat="36.971298" lon="-4.575592">
        <ele>974.8</ele>
      </trkpt>
      <trkpt lat="36.972069" lon="-4.575424">
        <ele>972.9</ele>
      </trkpt>
      <trkpt lat="36.972939" lon="-4.575531">
        <ele>963.9</ele>
      </trkpt>
      <trkpt lat="36.973579" lon="-4.575027">
        <ele>966.5</ele>
      </trkpt>
      <trkpt lat="36.974739" lon="-4.574631">
        <ele>953.0</ele>
      </trkpt>
      <trkpt lat="36.975304" lon="-4.574524">
        <ele>938.2</ele>
      </trkpt>
      <trkpt lat="36.976349" lon="-4.573792">
        <ele>913.5</ele>
      </trkpt>
      <trkpt lat="36.975777" lon="-4.574890">
        <ele>896.4</ele>
      </trkpt>
      <trkpt lat="36.975800" lon="-4.575592">
        <ele>878.5</ele>
      </trkpt>
      <trkpt lat="36.975380" lon="-4.576019">
        <ele>869.2</ele>
      </trkpt>
      <trkpt lat="36.975700" lon="-4.576065">
        <ele>864.2</ele>
      </trkpt>
      <trkpt lat="36.975800" lon="-4.576080">
        <ele>858.7</ele>
      </trkpt>
      <trkpt lat="36.976257" lon="-4.576019">
        <ele>843.6</ele>
      </trkpt>
      <trkpt lat="36.977127" lon="-4.575180">
        <ele>813.1</ele>
      </trkpt>
      <trkpt lat="36.977043" lon="-4.575546">
        <ele>799.4</ele>
      </trkpt>
      <trkpt lat="36.977417" lon="-4.575378">
        <ele>801.2</ele>
      </trkpt>
      <trkpt lat="36.977463" lon="-4.575317">
        <ele>798.2</ele>
      </trkpt>
      <trkpt lat="36.977486" lon="-4.575378">
        <ele>794.4</ele>
      </trkpt>
      <trkpt lat="36.977158" lon="-4.576233">
        <ele>780.9</ele>
      </trkpt>
      <trkpt lat="36.977257" lon="-4.576172">
        <ele>781.7</ele>
      </trkpt>
      <trkpt lat="36.977333" lon="-4.576035">
        <ele>779.2</ele>
      </trkpt>
      <trkpt lat="36.977928" lon="-4.575851">
        <ele>774.2</ele>
      </trkpt>
      <trkpt lat="36.978539" lon="-4.575272">
        <ele>764.6</ele>
      </trkpt>
      <trkpt lat="36.978661" lon="-4.575119">
        <ele>757.9</ele>
      </trkpt>
      <trkpt lat="36.978767" lon="-4.575058">
        <ele>758.8</ele>
      </trkpt>
      <trkpt lat="36.978897" lon="-4.574890">
        <ele>757.8</ele>
      </trkpt>
      <trkpt lat="36.978836" lon="-4.574860">
        <ele>753.2</ele>
      </trkpt>
      <trkpt lat="36.978790" lon="-4.574860">
        <ele>746.2</ele>
      </trkpt>
      <trkpt lat="36.978905" lon="-4.574860">
        <ele>753.4</ele>
      </trkpt>
      <trkpt lat="36.979134" lon="-4.574539">
        <ele>751.6</ele>
      </trkpt>
      <trkpt lat="36.981247" lon="-4.573532">
        <ele>733.3</ele>
      </trkpt>
      <trkpt lat="36.981705" lon="-4.572784">
        <ele>722.7</ele>
      </trkpt>
      <trkpt lat="36.983009" lon="-4.571594">
        <ele>707.4</ele>
      </trkpt>
      <trkpt lat="36.983551" lon="-4.571045">
        <ele>697.3</ele>
      </trkpt>
      <trkpt lat="36.983818" lon="-4.571060">
        <ele>693.3</ele>
      </trkpt>
      <trkpt lat="36.984329" lon="-4.570724">
        <ele>690.6</ele>
      </trkpt>
      <trkpt lat="36.990067" lon="-4.568420">
        <ele>665.4</ele>
      </trkpt>
      <trkpt lat="36.990562" lon="-4.568405">
        <ele>668.2</ele>
      </trkpt>
      <trkpt lat="36.990944" lon="-4.568604">
        <ele>673.5</ele>
      </trkpt>
      <trkpt lat="36.991516" lon="-4.568939">
        <ele>667.9</ele>
      </trkpt>
      <trkpt lat="36.991684" lon="-4.568954">
        <ele>671.6</ele>
      </trkpt>
      <trkpt lat="36.991638" lon="-4.568771">
        <ele>683.7</ele>
      </trkpt>
      <trkpt lat="36.992882" lon="-4.568665">
        <ele>659.2</ele>
      </trkpt>
      <trkpt lat="36.994034" lon="-4.567947">
        <ele>648.5</ele>
      </trkpt>
      <trkpt lat="36.996284" lon="-4.568085">
        <ele>635.6</ele>
      </trkpt>
      <trkpt lat="36.996544" lon="-4.567978">
        <ele>631.8</ele>
      </trkpt>
      <trkpt lat="36.997391" lon="-4.567566">
        <ele>625.6</ele>
      </trkpt>
      <trkpt lat="36.998741" lon="-4.566025">
        <ele>598.1</ele>
      </trkpt>
      <trkpt lat="36.999046" lon="-4.565765">
        <ele>598.7</ele>
      </trkpt>
      <trkpt lat="36.999123" lon="-4.565659">
        <ele>596.5</ele>
      </trkpt>
      <trkpt lat="36.999474" lon="-4.565399">
        <ele>592.3</ele>
      </trkpt>
      <trkpt lat="37.001007" lon="-4.563919">
        <ele>585.7</ele>
      </trkpt>
      <trkpt lat="37.001335" lon="-4.562881">
        <ele>580.4</ele>
      </trkpt>
      <trkpt lat="37.001816" lon="-4.562119">
        <ele>581.3</ele>
      </trkpt>
      <trkpt lat="37.003723" lon="-4.560165">
        <ele>591.8</ele>
      </trkpt>
      <trkpt lat="37.003952" lon="-4.560013">
        <ele>591.3</ele>
      </trkpt>
      <trkpt lat="37.004501" lon="-4.560272">
        <ele>595.3</ele>
      </trkpt>
      <trkpt lat="37.005096" lon="-4.560699">
        <ele>587.9</ele>
      </trkpt>
      <trkpt lat="37.006775" lon="-4.560333">
        <ele>582.0</ele>
      </trkpt>
      <trkpt lat="37.008163" lon="-4.560425">
        <ele>580.5</ele>
      </trkpt>
      <trkpt lat="37.008621" lon="-4.560287">
        <ele>578.8</ele>
      </trkpt>
      <trkpt lat="37.008865" lon="-4.560165">
        <ele>572.3</ele>
      </trkpt>
      <trkpt lat="37.009270" lon="-4.560333">
        <ele>573.6</ele>
      </trkpt>
      <trkpt lat="37.009521" lon="-4.560486">
        <ele>570.3</ele>
      </trkpt>
      <trkpt lat="37.010246" lon="-4.560791">
        <ele>571.1</ele>
      </trkpt>
      <trkpt lat="37.010506" lon="-4.560806">
        <ele>570.6</ele>
      </trkpt>
      <trkpt lat="37.011047" lon="-4.560699">
        <ele>569.9</ele>
      </trkpt>
      <trkpt lat="37.011597" lon="-4.560593">
        <ele>564.8</ele>
      </trkpt>
      <trkpt lat="37.011795" lon="-4.560394">
        <ele>566.1</ele>
      </trkpt>
      <trkpt lat="37.011993" lon="-4.560165">
        <ele>557.8</ele>
      </trkpt>
      <trkpt lat="37.012306" lon="-4.560059">
        <ele>563.8</ele>
      </trkpt>
      <trkpt lat="37.012459" lon="-4.559921">
        <ele>556.6</ele>
      </trkpt>
      <trkpt lat="37.012672" lon="-4.560013">
        <ele>563.4</ele>
      </trkpt>
      <trkpt lat="37.012886" lon="-4.559998">
        <ele>565.5</ele>
      </trkpt>
      <trkpt lat="37.013428" lon="-4.559708">
        <ele>555.1</ele>
      </trkpt>
      <trkpt lat="37.013680" lon="-4.559753">
        <ele>560.8</ele>
      </trkpt>
      <trkpt lat="37.013779" lon="-4.559738">
        <ele>560.5</ele>
      </trkpt>
      <trkpt lat="37.013840" lon="-4.559799">
        <ele>559.1</ele>
      </trkpt>
      <trkpt lat="37.013977" lon="-4.559738">
        <ele>551.4</ele>
      </trkpt>
      <trkpt lat="37.013916" lon="-4.559860">
        <ele>554.4</ele>
      </trkpt>
      <trkpt lat="37.013908" lon="-4.560013">
        <ele>553.8</ele>
      </trkpt>
      <trkpt lat="37.014000" lon="-4.560059">
        <ele>552.9</ele>
      </trkpt>
      <trkpt lat="37.014442" lon="-4.559784">
        <ele>559.6</ele>
      </trkpt>
      <trkpt lat="37.015274" lon="-4.559311">
        <ele>548.4</ele>
      </trkpt>
      <trkpt lat="37.016159" lon="-4.559174">
        <ele>518.6</ele>
      </trkpt>
      <trkpt lat="37.016335" lon="-4.559204">
        <ele>525.1</ele>
      </trkpt>
      <trkpt lat="37.017250" lon="-4.560064">
        <ele>518.6</ele>
      </trkpt>
      <trkpt lat="37.017771" lon="-4.560657">
        <ele>520.5</ele>
      </trkpt>
      <trkpt lat="37.018490" lon="-4.561907">
        <ele>520.0</ele>
      </trkpt>
      <trkpt lat="37.019173" lon="-4.562565">
        <ele>517.4</ele>
      </trkpt>
    </trkseg>
  </trk>
</gpx>
